sensor_id;sensor_type;location;lat;lon;timestamp;temperature;humidity
10536;DHT22;5316;49.538;8.352;2023-04-25T01:27:25;9.60;1.00
10536;DHT22;5316;49.538;8.352;2023-04-25T01:29:54;9.60;1.00
10536;DHT22;5316;49.538;8.352;2023-04-25T01:32:22;9.60;1.00
10536;DHT22;5316;49.538;8.352;2023-04-25T01:34:49;9.60;1.00
10536;DHT22;5316;49.538;8.352;2023-04-25T01:37:16;9.60;15.90
10536;DHT22;5316;49.538;8.352;2023-04-25T01:39:43;9.60;28.90
10536;DHT22;5316;49.538;8.352;2023-04-25T01:42:10;9.60;55.00
10536;DHT22;5316;49.538;8.352;2023-04-25T01:44:39;9.50;67.80
10536;DHT22;5316;49.538;8.352;2023-04-25T01:47:06;9.40;99.90
10536;DHT22;5316;49.538;8.352;2023-04-25T01:49:33;9.40;91.00
10536;DHT22;5316;49.538;8.352;2023-04-25T01:51:59;9.40;99.90
10536;DHT22;5316;49.538;8.352;2023-04-25T01:54:26;9.40;99.90
10536;DHT22;5316;49.538;8.352;2023-04-25T01:56:53;9.40;99.90
10536;DHT22;5316;49.538;8.352;2023-04-25T01:59:23;9.30;99.90
10536;DHT22;5316;49.538;8.352;2023-04-25T02:01:52;9.30;99.90
10536;DHT22;5316;49.538;8.352;2023-04-25T02:04:19;9.30;99.90
10536;DHT22;5316;49.538;8.352;2023-04-25T02:06:47;9.30;99.90
10536;DHT22;5316;49.538;8.352;2023-04-25T02:09:14;9.30;99.90
10536;DHT22;5316;49.538;8.352;2023-04-25T02:11:41;9.30;99.90
10536;DHT22;5316;49.538;8.352;2023-04-25T02:14:08;9.30;99.90
10536;DHT22;5316;49.538;8.352;2023-04-25T02:16:34;9.20;99.90
10536;DHT22;5316;49.538;8.352;2023-04-25T02:19:04;9.20;99.90
10536;DHT22;5316;49.538;8.352;2023-04-25T02:21:31;9.20;99.90
10536;DHT22;5316;49.538;8.352;2023-04-25T02:23:59;9.30;99.90
10536;DHT22;5316;49.538;8.352;2023-04-25T02:26:26;9.30;99.90
10536;DHT22;5316;49.538;8.352;2023-04-25T02:28:52;9.30;99.90
10536;DHT22;5316;49.538;8.352;2023-04-25T02:31:19;9.30;99.90
10536;DHT22;5316;49.538;8.352;2023-04-25T02:33:47;9.30;99.90
10536;DHT22;5316;49.538;8.352;2023-04-25T02:36:15;9.30;99.90
10536;DHT22;5316;49.538;8.352;2023-04-25T02:38:42;9.30;99.90
10536;DHT22;5316;49.538;8.352;2023-04-25T02:41:09;9.30;99.90
10536;DHT22;5316;49.538;8.352;2023-04-25T02:43:36;9.30;99.90
10536;DHT22;5316;49.538;8.352;2023-04-25T02:46:03;9.30;99.90
10536;DHT22;5316;49.538;8.352;2023-04-25T02:48:30;9.40;99.90
10536;DHT22;5316;49.538;8.352;2023-04-25T02:50:57;9.40;99.90
10536;DHT22;5316;49.538;8.352;2023-04-25T02:53:25;9.40;99.90
10536;DHT22;5316;49.538;8.352;2023-04-25T02:55:52;9.40;99.90
10536;DHT22;5316;49.538;8.352;2023-04-25T02:58:19;9.30;99.90
10536;DHT22;5316;49.538;8.352;2023-04-25T03:00:46;9.40;99.90
10536;DHT22;5316;49.538;8.352;2023-04-25T03:03:13;9.30;99.90
10536;DHT22;5316;49.538;8.352;2023-04-25T03:05:43;9.30;99.90
10536;DHT22;5316;49.538;8.352;2023-04-25T03:08:10;9.30;99.90
10536;DHT22;5316;49.538;8.352;2023-04-25T03:10:38;9.30;99.90
10536;DHT22;5316;49.538;8.352;2023-04-25T03:13:05;9.20;99.90
10536;DHT22;5316;49.538;8.352;2023-04-25T03:15:32;9.30;99.90
10536;DHT22;5316;49.538;8.352;2023-04-25T03:17:59;9.30;99.90
10536;DHT22;5316;49.538;8.352;2023-04-25T03:20:26;9.30;99.90
10536;DHT22;5316;49.538;8.352;2023-04-25T03:22:53;9.30;99.90
10536;DHT22;5316;49.538;8.352;2023-04-25T03:25:21;9.30;99.90
10536;DHT22;5316;49.538;8.352;2023-04-25T03:27:49;9.30;99.90
10536;DHT22;5316;49.538;8.352;2023-04-25T03:30:16;9.20;99.90
10536;DHT22;5316;49.538;8.352;2023-04-25T03:32:43;9.20;99.90
10536;DHT22;5316;49.538;8.352;2023-04-25T03:35:10;9.20;99.90
10536;DHT22;5316;49.538;8.352;2023-04-25T03:37:37;9.30;99.90
10536;DHT22;5316;49.538;8.352;2023-04-25T03:40:04;9.20;99.90
10536;DHT22;5316;49.538;8.352;2023-04-25T03:42:32;9.20;99.90
10536;DHT22;5316;49.538;8.352;2023-04-25T03:45:00;9.20;99.90
10536;DHT22;5316;49.538;8.352;2023-04-25T03:47:26;9.30;99.90
10536;DHT22;5316;49.538;8.352;2023-04-25T03:49:53;9.20;99.90
10536;DHT22;5316;49.538;8.352;2023-04-25T03:52:20;9.20;99.90
10536;DHT22;5316;49.538;8.352;2023-04-25T03:54:47;9.20;99.90
10536;DHT22;5316;49.538;8.352;2023-04-25T03:57:14;9.20;99.90
10536;DHT22;5316;49.538;8.352;2023-04-25T03:59:41;9.10;99.90
10536;DHT22;5316;49.538;8.352;2023-04-25T04:02:09;9.00;99.90
10536;DHT22;5316;49.538;8.352;2023-04-25T04:04:36;9.00;99.90
10536;DHT22;5316;49.538;8.352;2023-04-25T04:07:03;9.00;99.90
10536;DHT22;5316;49.538;8.352;2023-04-25T04:09:30;9.00;99.90
10536;DHT22;5316;49.538;8.352;2023-04-25T04:11:57;9.00;99.90
10536;DHT22;5316;49.538;8.352;2023-04-25T04:14:24;9.00;99.90
10536;DHT22;5316;49.538;8.352;2023-04-25T04:16:51;9.10;99.90
10536;DHT22;5316;49.538;8.352;2023-04-25T04:19:20;9.00;99.90
10536;DHT22;5316;49.538;8.352;2023-04-25T04:21:47;9.00;99.90
10536;DHT22;5316;49.538;8.352;2023-04-25T04:24:13;9.00;99.90
10536;DHT22;5316;49.538;8.352;2023-04-25T04:26:42;9.00;99.90
10536;DHT22;5316;49.538;8.352;2023-04-25T04:29:10;9.10;99.90
10536;DHT22;5316;49.538;8.352;2023-04-25T04:31:37;9.10;99.90
10536;DHT22;5316;49.538;8.352;2023-04-25T04:34:04;9.00;99.90
10536;DHT22;5316;49.538;8.352;2023-04-25T04:36:32;9.10;99.90
10536;DHT22;5316;49.538;8.352;2023-04-25T04:38:59;9.10;99.90
10536;DHT22;5316;49.538;8.352;2023-04-25T04:41:27;9.10;99.90
10536;DHT22;5316;49.538;8.352;2023-04-25T04:43:54;9.10;99.90
10536;DHT22;5316;49.538;8.352;2023-04-25T04:46:21;9.10;99.90
10536;DHT22;5316;49.538;8.352;2023-04-25T04:48:50;9.10;99.90
10536;DHT22;5316;49.538;8.352;2023-04-25T04:51:18;9.00;99.90
10536;DHT22;5316;49.538;8.352;2023-04-25T04:53:47;9.00;99.90
10536;DHT22;5316;49.538;8.352;2023-04-25T04:56:14;9.10;99.90
10536;DHT22;5316;49.538;8.352;2023-04-25T04:58:41;9.10;99.90
10536;DHT22;5316;49.538;8.352;2023-04-25T05:01:08;9.10;99.90
10536;DHT22;5316;49.538;8.352;2023-04-25T05:03:35;9.10;99.90
10536;DHT22;5316;49.538;8.352;2023-04-25T05:06:02;9.10;99.90
10536;DHT22;5316;49.538;8.352;2023-04-25T05:08:28;9.00;99.90
10536;DHT22;5316;49.538;8.352;2023-04-25T05:10:56;9.00;99.90
10536;DHT22;5316;49.538;8.352;2023-04-25T05:13:23;9.00;99.90
10536;DHT22;5316;49.538;8.352;2023-04-25T05:15:50;9.00;99.90
10536;DHT22;5316;49.538;8.352;2023-04-25T05:18:17;9.00;99.90
10536;DHT22;5316;49.538;8.352;2023-04-25T05:20:44;9.00;99.90
10536;DHT22;5316;49.538;8.352;2023-04-25T05:23:11;9.00;99.90
10536;DHT22;5316;49.538;8.352;2023-04-25T05:25:38;9.10;99.90
10536;DHT22;5316;49.538;8.352;2023-04-25T05:28:06;9.10;99.90
10536;DHT22;5316;49.538;8.352;2023-04-25T05:30:35;9.10;99.90
10536;DHT22;5316;49.538;8.352;2023-04-25T05:33:02;9.20;99.90
10536;DHT22;5316;49.538;8.352;2023-04-25T05:35:29;9.30;99.90
10536;DHT22;5316;49.538;8.352;2023-04-25T05:37:56;9.40;99.90
10536;DHT22;5316;49.538;8.352;2023-04-25T05:40:23;9.50;99.90
10536;DHT22;5316;49.538;8.352;2023-04-25T05:42:49;9.60;99.90
10536;DHT22;5316;49.538;8.352;2023-04-25T05:45:17;9.60;99.90
10536;DHT22;5316;49.538;8.352;2023-04-25T05:47:44;9.60;99.90
10536;DHT22;5316;49.538;8.352;2023-04-25T05:50:11;9.50;99.90
10536;DHT22;5316;49.538;8.352;2023-04-25T05:52:38;9.50;99.90
10536;DHT22;5316;49.538;8.352;2023-04-25T05:55:05;9.40;99.90
10536;DHT22;5316;49.538;8.352;2023-04-25T05:57:32;9.50;99.90
10536;DHT22;5316;49.538;8.352;2023-04-25T05:59:59;9.40;99.90
10536;DHT22;5316;49.538;8.352;2023-04-25T06:02:27;9.40;99.90
10536;DHT22;5316;49.538;8.352;2023-04-25T06:04:54;9.40;99.90
10536;DHT22;5316;49.538;8.352;2023-04-25T06:07:21;9.50;99.90
10536;DHT22;5316;49.538;8.352;2023-04-25T06:09:48;9.50;99.90
10536;DHT22;5316;49.538;8.352;2023-04-25T06:12:15;9.40;99.90
10536;DHT22;5316;49.538;8.352;2023-04-25T06:14:42;9.30;99.90
10536;DHT22;5316;49.538;8.352;2023-04-25T06:17:09;9.40;99.90
10536;DHT22;5316;49.538;8.352;2023-04-25T06:19:37;9.50;99.90
10536;DHT22;5316;49.538;8.352;2023-04-25T06:22:04;9.50;98.60
10536;DHT22;5316;49.538;8.352;2023-04-25T06:24:33;9.50;8.00
10536;DHT22;5316;49.538;8.352;2023-04-25T06:27:00;9.60;14.20
10536;DHT22;5316;49.538;8.352;2023-04-25T06:29:27;9.60;1.00
10536;DHT22;5316;49.538;8.352;2023-04-25T06:31:54;9.70;1.00
10536;DHT22;5316;49.538;8.352;2023-04-25T06:34:20;9.70;1.00
10536;DHT22;5316;49.538;8.352;2023-04-25T06:36:49;9.80;1.00
10536;DHT22;5316;49.538;8.352;2023-04-25T06:39:16;9.90;1.00
10536;DHT22;5316;49.538;8.352;2023-04-25T06:41:43;9.90;1.00
10536;DHT22;5316;49.538;8.352;2023-04-25T06:44:11;9.80;1.00
10536;DHT22;5316;49.538;8.352;2023-04-25T06:46:38;9.80;1.00
10536;DHT22;5316;49.538;8.352;2023-04-25T06:49:05;9.80;99.90
10536;DHT22;5316;49.538;8.352;2023-04-25T06:51:32;9.70;1.00
10536;DHT22;5316;49.538;8.352;2023-04-25T06:54:00;9.60;99.90
10536;DHT22;5316;49.538;8.352;2023-04-25T06:56:28;9.50;1.00
10536;DHT22;5316;49.538;8.352;2023-04-25T06:58:56;9.60;99.90
10536;DHT22;5316;49.538;8.352;2023-04-25T07:01:23;9.70;99.90
10536;DHT22;5316;49.538;8.352;2023-04-25T07:03:50;9.60;1.00
10536;DHT22;5316;49.538;8.352;2023-04-25T07:06:16;9.60;1.00
10536;DHT22;5316;49.538;8.352;2023-04-25T07:08:43;9.60;1.00
10536;DHT22;5316;49.538;8.352;2023-04-25T07:11:12;9.60;1.00
10536;DHT22;5316;49.538;8.352;2023-04-25T07:13:39;9.50;1.00
10536;DHT22;5316;49.538;8.352;2023-04-25T07:16:06;9.60;1.00
10536;DHT22;5316;49.538;8.352;2023-04-25T07:18:33;9.60;1.00
10536;DHT22;5316;49.538;8.352;2023-04-25T07:21:00;9.70;1.00
10536;DHT22;5316;49.538;8.352;2023-04-25T07:23:27;9.70;1.00
10536;DHT22;5316;49.538;8.352;2023-04-25T07:25:53;9.70;1.00
10536;DHT22;5316;49.538;8.352;2023-04-25T07:29:22;9.70;1.00
10536;DHT22;5316;49.538;8.352;2023-04-25T07:32:20;9.80;1.00
10536;DHT22;5316;49.538;8.352;2023-04-25T07:35:35;9.80;1.00
10536;DHT22;5316;49.538;8.352;2023-04-25T07:38:47;9.90;1.00
10536;DHT22;5316;49.538;8.352;2023-04-25T07:41:48;10.00;1.00
10536;DHT22;5316;49.538;8.352;2023-04-25T07:58:26;10.30;99.90
10536;DHT22;5316;49.538;8.352;2023-04-25T08:01:52;10.50;99.90
10536;DHT22;5316;49.538;8.352;2023-04-25T08:04:45;10.40;99.90
10536;DHT22;5316;49.538;8.352;2023-04-25T08:11:14;10.40;99.90
10536;DHT22;5316;49.538;8.352;2023-04-25T08:17:16;10.30;99.90
10536;DHT22;5316;49.538;8.352;2023-04-25T08:20:19;10.00;59.30
10536;DHT22;5316;49.538;8.352;2023-04-25T08:23:28;10.10;92.40
10536;DHT22;5316;49.538;8.352;2023-04-25T08:26:10;10.20;99.90
10536;DHT22;5316;49.538;8.352;2023-04-25T08:29:00;10.30;99.90
10536;DHT22;5316;49.538;8.352;2023-04-25T08:34:51;10.40;25.80
10536;DHT22;5316;49.538;8.352;2023-04-25T08:37:45;10.60;39.50
10536;DHT22;5316;49.538;8.352;2023-04-25T08:57:40;11.10;99.90
10536;DHT22;5316;49.538;8.352;2023-04-25T09:00:09;11.20;99.90
10536;DHT22;5316;49.538;8.352;2023-04-25T09:02:37;11.30;1.00
10536;DHT22;5316;49.538;8.352;2023-04-25T09:05:06;11.40;1.00
10536;DHT22;5316;49.538;8.352;2023-04-25T09:07:35;11.30;1.00
10536;DHT22;5316;49.538;8.352;2023-04-25T09:10:02;11.40;1.00
10536;DHT22;5316;49.538;8.352;2023-04-25T09:12:29;11.40;1.00
10536;DHT22;5316;49.538;8.352;2023-04-25T09:15:06;11.40;99.90
10536;DHT22;5316;49.538;8.352;2023-04-25T09:17:33;11.40;1.00
10536;DHT22;5316;49.538;8.352;2023-04-25T09:20:08;11.50;1.00
10536;DHT22;5316;49.538;8.352;2023-04-25T09:22:35;11.60;99.90
10536;DHT22;5316;49.538;8.352;2023-04-25T09:25:03;11.40;5.40
10536;DHT22;5316;49.538;8.352;2023-04-25T09:27:32;11.40;23.10
10536;DHT22;5316;49.538;8.352;2023-04-25T09:30:00;11.50;99.90
10536;DHT22;5316;49.538;8.352;2023-04-25T09:32:29;11.60;4.60
10536;DHT22;5316;49.538;8.352;2023-04-25T09:34:57;11.70;29.40
10536;DHT22;5316;49.538;8.352;2023-04-25T09:37:25;11.80;99.90
10536;DHT22;5316;49.538;8.352;2023-04-25T09:39:54;11.90;1.00
10536;DHT22;5316;49.538;8.352;2023-04-25T09:42:22;12.00;98.40
10536;DHT22;5316;49.538;8.352;2023-04-25T09:44:52;12.00;99.90
10536;DHT22;5316;49.538;8.352;2023-04-25T09:47:20;12.00;99.90
10536;DHT22;5316;49.538;8.352;2023-04-25T09:49:51;12.10;99.90
10536;DHT22;5316;49.538;8.352;2023-04-25T09:52:19;12.30;5.10
10536;DHT22;5316;49.538;8.352;2023-04-25T09:54:47;12.40;1.00
10536;DHT22;5316;49.538;8.352;2023-04-25T09:57:16;12.50;1.00
10536;DHT22;5316;49.538;8.352;2023-04-25T09:59:45;12.60;1.00
10536;DHT22;5316;49.538;8.352;2023-04-25T10:02:13;12.60;1.00
10536;DHT22;5316;49.538;8.352;2023-04-25T10:04:41;12.40;1.00
10536;DHT22;5316;49.538;8.352;2023-04-25T10:07:19;12.20;1.00
10536;DHT22;5316;49.538;8.352;2023-04-25T10:09:49;12.20;1.00
10536;DHT22;5316;49.538;8.352;2023-04-25T10:12:19;12.30;1.00
10536;DHT22;5316;49.538;8.352;2023-04-25T10:14:47;12.10;39.90
10536;DHT22;5316;49.538;8.352;2023-04-25T10:17:14;12.10;1.00
10536;DHT22;5316;49.538;8.352;2023-04-25T10:19:41;12.10;99.90
10536;DHT22;5316;49.538;8.352;2023-04-25T10:22:14;12.00;1.00
10536;DHT22;5316;49.538;8.352;2023-04-25T10:24:43;11.90;1.00
10536;DHT22;5316;49.538;8.352;2023-04-25T10:27:12;11.80;1.00
10536;DHT22;5316;49.538;8.352;2023-04-25T10:29:41;11.80;1.00
10536;DHT22;5316;49.538;8.352;2023-04-25T10:32:08;11.80;1.00
10536;DHT22;5316;49.538;8.352;2023-04-25T10:34:40;11.90;43.30
10536;DHT22;5316;49.538;8.352;2023-04-25T10:37:09;12.00;99.90
10536;DHT22;5316;49.538;8.352;2023-04-25T10:39:39;12.10;99.90
10536;DHT22;5316;49.538;8.352;2023-04-25T10:42:06;12.00;1.00
10536;DHT22;5316;49.538;8.352;2023-04-25T10:44:34;11.90;41.60
10536;DHT22;5316;49.538;8.352;2023-04-25T10:47:01;11.80;1.00
10536;DHT22;5316;49.538;8.352;2023-04-25T10:49:32;11.80;99.90
10536;DHT22;5316;49.538;8.352;2023-04-25T10:52:24;11.90;99.90
10536;DHT22;5316;49.538;8.352;2023-04-25T10:54:54;11.90;61.50
10536;DHT22;5316;49.538;8.352;2023-04-25T10:57:32;11.80;1.00
10536;DHT22;5316;49.538;8.352;2023-04-25T11:00:08;11.80;1.00
10536;DHT22;5316;49.538;8.352;2023-04-25T11:02:44;11.90;99.90
10536;DHT22;5316;49.538;8.352;2023-04-25T11:05:20;12.00;1.00
10536;DHT22;5316;49.538;8.352;2023-04-25T11:07:50;12.20;7.20
10536;DHT22;5316;49.538;8.352;2023-04-25T11:10:25;12.20;1.00
10536;DHT22;5316;49.538;8.352;2023-04-25T11:12:52;12.00;99.90
10536;DHT22;5316;49.538;8.352;2023-04-25T11:15:19;12.00;99.90
10536;DHT22;5316;49.538;8.352;2023-04-25T11:17:46;12.20;99.90
10536;DHT22;5316;49.538;8.352;2023-04-25T11:20:14;12.30;97.60
10536;DHT22;5316;49.538;8.352;2023-04-25T11:22:41;12.30;1.00
10536;DHT22;5316;49.538;8.352;2023-04-25T11:25:11;12.40;99.90
10536;DHT22;5316;49.538;8.352;2023-04-25T11:27:49;12.50;1.00
10536;DHT22;5316;49.538;8.352;2023-04-25T11:30:17;12.40;1.00
10536;DHT22;5316;49.538;8.352;2023-04-25T11:32:44;12.20;1.00
10536;DHT22;5316;49.538;8.352;2023-04-25T11:35:11;12.20;1.00
10536;DHT22;5316;49.538;8.352;2023-04-25T11:37:39;12.30;1.00
10536;DHT22;5316;49.538;8.352;2023-04-25T11:40:07;12.20;21.10
10536;DHT22;5316;49.538;8.352;2023-04-25T11:42:36;12.20;1.00
10536;DHT22;5316;49.538;8.352;2023-04-25T11:45:06;12.20;1.00
10536;DHT22;5316;49.538;8.352;2023-04-25T11:47:34;12.20;99.90
10536;DHT22;5316;49.538;8.352;2023-04-25T11:50:01;12.20;99.90
10536;DHT22;5316;49.538;8.352;2023-04-25T11:52:36;12.00;99.90
10536;DHT22;5316;49.538;8.352;2023-04-25T11:55:05;12.00;99.90
10536;DHT22;5316;49.538;8.352;2023-04-25T11:57:33;11.90;99.90
10536;DHT22;5316;49.538;8.352;2023-04-25T12:00:08;11.80;1.00
10536;DHT22;5316;49.538;8.352;2023-04-25T12:02:36;11.80;1.00
10536;DHT22;5316;49.538;8.352;2023-04-25T12:05:07;11.80;1.00
10536;DHT22;5316;49.538;8.352;2023-04-25T12:07:36;11.90;1.00
10536;DHT22;5316;49.538;8.352;2023-04-25T12:10:07;12.00;1.00
10536;DHT22;5316;49.538;8.352;2023-04-25T12:12:36;12.10;1.00
10536;DHT22;5316;49.538;8.352;2023-04-25T12:15:13;12.20;1.00
10536;DHT22;5316;49.538;8.352;2023-04-25T12:17:45;12.40;45.20
10536;DHT22;5316;49.538;8.352;2023-04-25T12:20:14;12.20;99.50
10536;DHT22;5316;49.538;8.352;2023-04-25T12:22:41;12.20;99.90
10536;DHT22;5316;49.538;8.352;2023-04-25T12:25:11;12.10;99.90
10536;DHT22;5316;49.538;8.352;2023-04-25T12:27:39;12.10;99.90
10536;DHT22;5316;49.538;8.352;2023-04-25T12:30:08;12.00;1.00
10536;DHT22;5316;49.538;8.352;2023-04-25T12:32:38;12.10;99.90
10536;DHT22;5316;49.538;8.352;2023-04-25T12:35:06;12.10;99.90
10536;DHT22;5316;49.538;8.352;2023-04-25T12:37:33;12.20;99.90
10536;DHT22;5316;49.538;8.352;2023-04-25T12:40:00;12.30;1.00
10536;DHT22;5316;49.538;8.352;2023-04-25T12:42:30;12.40;99.90
10536;DHT22;5316;49.538;8.352;2023-04-25T12:44:57;12.50;92.70
10536;DHT22;5316;49.538;8.352;2023-04-25T12:47:24;12.40;95.90
10536;DHT22;5316;49.538;8.352;2023-04-25T12:49:53;12.20;99.90
10536;DHT22;5316;49.538;8.352;2023-04-25T12:52:20;12.10;99.90
10536;DHT22;5316;49.538;8.352;2023-04-25T12:54:47;12.20;99.90
10536;DHT22;5316;49.538;8.352;2023-04-25T12:57:14;12.20;1.00
10536;DHT22;5316;49.538;8.352;2023-04-25T12:59:41;12.10;99.90
10536;DHT22;5316;49.538;8.352;2023-04-25T13:02:11;12.10;99.90
10536;DHT22;5316;49.538;8.352;2023-04-25T13:04:38;12.20;99.90
10536;DHT22;5316;49.538;8.352;2023-04-25T13:07:08;12.20;99.90
10536;DHT22;5316;49.538;8.352;2023-04-25T13:09:37;12.30;99.90
10536;DHT22;5316;49.538;8.352;2023-04-25T13:12:05;12.40;99.90
10536;DHT22;5316;49.538;8.352;2023-04-25T13:14:31;12.60;1.00
10536;DHT22;5316;49.538;8.352;2023-04-25T13:16:59;12.80;1.00
10536;DHT22;5316;49.538;8.352;2023-04-25T13:19:27;12.90;1.00
10536;DHT22;5316;49.538;8.352;2023-04-25T13:21:54;12.90;1.00
10536;DHT22;5316;49.538;8.352;2023-04-25T13:24:22;13.00;1.00
10536;DHT22;5316;49.538;8.352;2023-04-25T13:26:50;12.90;99.90
10536;DHT22;5316;49.538;8.352;2023-04-25T13:29:17;12.90;99.90
10536;DHT22;5316;49.538;8.352;2023-04-25T13:31:44;13.00;99.90
10536;DHT22;5316;49.538;8.352;2023-04-25T13:34:11;12.80;99.90
10536;DHT22;5316;49.538;8.352;2023-04-25T13:36:38;12.70;1.00
10536;DHT22;5316;49.538;8.352;2023-04-25T13:39:05;12.60;1.00
10536;DHT22;5316;49.538;8.352;2023-04-25T13:41:34;12.50;1.00
10536;DHT22;5316;49.538;8.352;2023-04-25T13:44:01;12.60;1.00
10536;DHT22;5316;49.538;8.352;2023-04-25T13:46:28;12.60;1.00
10536;DHT22;5316;49.538;8.352;2023-04-25T13:48:55;12.70;1.00
10536;DHT22;5316;49.538;8.352;2023-04-25T13:51:22;12.70;1.00
10536;DHT22;5316;49.538;8.352;2023-04-25T13:53:48;12.60;1.00
10536;DHT22;5316;49.538;8.352;2023-04-25T13:56:15;12.80;1.00
10536;DHT22;5316;49.538;8.352;2023-04-25T13:58:46;12.80;1.00
10536;DHT22;5316;49.538;8.352;2023-04-25T14:01:13;12.90;1.00
10536;DHT22;5316;49.538;8.352;2023-04-25T14:03:40;13.00;1.00
10536;DHT22;5316;49.538;8.352;2023-04-25T14:06:07;12.90;1.00
10536;DHT22;5316;49.538;8.352;2023-04-25T14:08:35;12.70;1.00
10536;DHT22;5316;49.538;8.352;2023-04-25T14:11:02;12.50;99.90
10536;DHT22;5316;49.538;8.352;2023-04-25T14:13:29;12.40;99.90
10536;DHT22;5316;49.538;8.352;2023-04-25T14:15:58;12.20;99.90
10536;DHT22;5316;49.538;8.352;2023-04-25T14:18:25;12.20;99.90
10536;DHT22;5316;49.538;8.352;2023-04-25T14:20:52;12.10;1.00
10536;DHT22;5316;49.538;8.352;2023-04-25T14:23:19;12.20;1.00
10536;DHT22;5316;49.538;8.352;2023-04-25T14:25:46;12.30;1.00
10536;DHT22;5316;49.538;8.352;2023-04-25T14:28:13;12.50;1.00
10536;DHT22;5316;49.538;8.352;2023-04-25T14:30:40;12.60;1.00
10536;DHT22;5316;49.538;8.352;2023-04-25T14:33:08;12.70;1.00
10536;DHT22;5316;49.538;8.352;2023-04-25T14:35:35;12.60;1.00
10536;DHT22;5316;49.538;8.352;2023-04-25T14:38:02;12.70;99.90
10536;DHT22;5316;49.538;8.352;2023-04-25T14:40:29;12.80;1.00
10536;DHT22;5316;49.538;8.352;2023-04-25T14:42:56;13.00;99.90
10536;DHT22;5316;49.538;8.352;2023-04-25T14:45:23;13.20;99.90
10536;DHT22;5316;49.538;8.352;2023-04-25T14:47:50;13.20;99.90
10536;DHT22;5316;49.538;8.352;2023-04-25T14:50:18;13.30;99.90
10536;DHT22;5316;49.538;8.352;2023-04-25T14:52:45;13.80;99.90
10536;DHT22;5316;49.538;8.352;2023-04-25T14:55:12;14.20;99.90
10536;DHT22;5316;49.538;8.352;2023-04-25T14:57:39;14.50;99.90
10536;DHT22;5316;49.538;8.352;2023-04-25T15:00:07;15.10;16.50
10536;DHT22;5316;49.538;8.352;2023-04-25T15:02:35;15.90;1.00
10536;DHT22;5316;49.538;8.352;2023-04-25T15:05:02;16.50;1.00
10536;DHT22;5316;49.538;8.352;2023-04-25T15:07:31;17.20;1.00
10536;DHT22;5316;49.538;8.352;2023-04-25T15:10:00;17.50;1.00
10536;DHT22;5316;49.538;8.352;2023-04-25T15:12:26;17.10;1.00
10536;DHT22;5316;49.538;8.352;2023-04-25T15:14:55;16.90;1.00
10536;DHT22;5316;49.538;8.352;2023-04-25T15:17:22;16.40;1.00
10536;DHT22;5316;49.538;8.352;2023-04-25T15:19:49;15.80;1.00
10536;DHT22;5316;49.538;8.352;2023-04-25T15:22:16;15.30;1.00
10536;DHT22;5316;49.538;8.352;2023-04-25T15:24:44;14.80;1.00
10536;DHT22;5316;49.538;8.352;2023-04-25T15:27:12;14.40;1.00
10536;DHT22;5316;49.538;8.352;2023-04-25T15:29:39;14.20;1.00
10536;DHT22;5316;49.538;8.352;2023-04-25T15:32:07;13.80;1.00
10536;DHT22;5316;49.538;8.352;2023-04-25T15:34:33;13.60;1.00
10536;DHT22;5316;49.538;8.352;2023-04-25T15:37:00;13.50;1.00
10536;DHT22;5316;49.538;8.352;2023-04-25T15:39:27;13.50;1.00
10536;DHT22;5316;49.538;8.352;2023-04-25T15:41:56;13.40;1.00
10536;DHT22;5316;49.538;8.352;2023-04-25T15:44:23;13.30;1.00
10536;DHT22;5316;49.538;8.352;2023-04-25T15:46:50;13.30;1.00
10536;DHT22;5316;49.538;8.352;2023-04-25T15:49:17;13.20;1.00
10536;DHT22;5316;49.538;8.352;2023-04-25T15:51:46;13.30;1.00
10536;DHT22;5316;49.538;8.352;2023-04-25T15:54:13;13.00;1.00
10536;DHT22;5316;49.538;8.352;2023-04-25T15:56:40;13.00;1.00
10536;DHT22;5316;49.538;8.352;2023-04-25T15:59:08;13.00;1.00
10536;DHT22;5316;49.538;8.352;2023-04-25T16:01:35;12.90;1.00
10536;DHT22;5316;49.538;8.352;2023-04-25T16:04:02;12.90;1.00
10536;DHT22;5316;49.538;8.352;2023-04-25T16:06:29;12.90;1.00
10536;DHT22;5316;49.538;8.352;2023-04-25T16:08:56;12.70;1.00
10536;DHT22;5316;49.538;8.352;2023-04-25T16:11:24;12.40;1.00
10536;DHT22;5316;49.538;8.352;2023-04-25T16:13:51;12.10;74.70
10536;DHT22;5316;49.538;8.352;2023-04-25T16:16:19;12.10;99.90
10536;DHT22;5316;49.538;8.352;2023-04-25T16:18:45;12.00;99.90
10536;DHT22;5316;49.538;8.352;2023-04-25T16:21:12;12.00;52.30
10536;DHT22;5316;49.538;8.352;2023-04-25T16:23:41;11.90;48.70
10536;DHT22;5316;49.538;8.352;2023-04-25T16:26:08;11.90;90.30
10536;DHT22;5316;49.538;8.352;2023-04-25T16:28:34;12.00;45.20
10536;DHT22;5316;49.538;8.352;2023-04-25T16:31:02;12.00;21.80
10536;DHT22;5316;49.538;8.352;2023-04-25T16:33:30;12.00;53.40
10536;DHT22;5316;49.538;8.352;2023-04-25T16:36:00;12.00;15.30
10536;DHT22;5316;49.538;8.352;2023-04-25T16:38:27;12.00;23.50
10536;DHT22;5316;49.538;8.352;2023-04-25T16:40:53;11.90;6.00
10536;DHT22;5316;49.538;8.352;2023-04-25T16:43:20;11.80;24.00
10536;DHT22;5316;49.538;8.352;2023-04-25T16:45:47;11.80;19.20
10536;DHT22;5316;49.538;8.352;2023-04-25T16:48:14;11.80;23.40
10536;DHT22;5316;49.538;8.352;2023-04-25T16:50:45;11.70;46.10
10536;DHT22;5316;49.538;8.352;2023-04-25T16:53:12;11.70;71.90
10536;DHT22;5316;49.538;8.352;2023-04-25T16:55:39;11.70;99.90
10536;DHT22;5316;49.538;8.352;2023-04-25T16:58:06;11.60;99.90
10536;DHT22;5316;49.538;8.352;2023-04-25T17:00:35;11.60;99.90
10536;DHT22;5316;49.538;8.352;2023-04-25T17:03:02;11.70;99.90
10536;DHT22;5316;49.538;8.352;2023-04-25T17:05:29;11.80;99.90
10536;DHT22;5316;49.538;8.352;2023-04-25T17:07:58;11.70;99.90
10536;DHT22;5316;49.538;8.352;2023-04-25T17:10:25;11.60;99.90
10536;DHT22;5316;49.538;8.352;2023-04-25T17:12:53;11.50;91.80
10536;DHT22;5316;49.538;8.352;2023-04-25T17:15:20;11.40;90.80
10536;DHT22;5316;49.538;8.352;2023-04-25T17:17:47;11.30;99.90
10536;DHT22;5316;49.538;8.352;2023-04-25T17:20:14;11.20;99.90
10536;DHT22;5316;49.538;8.352;2023-04-25T17:22:41;11.20;99.90
10536;DHT22;5316;49.538;8.352;2023-04-25T17:25:09;11.10;99.90
10536;DHT22;5316;49.538;8.352;2023-04-25T17:27:36;11.10;99.90
10536;DHT22;5316;49.538;8.352;2023-04-25T17:30:04;11.20;99.90
10536;DHT22;5316;49.538;8.352;2023-04-25T17:32:31;11.20;99.90
10536;DHT22;5316;49.538;8.352;2023-04-25T17:34:58;11.20;99.90
10536;DHT22;5316;49.538;8.352;2023-04-25T17:37:26;11.20;99.90
10536;DHT22;5316;49.538;8.352;2023-04-25T17:39:53;11.20;99.90
10536;DHT22;5316;49.538;8.352;2023-04-25T17:42:21;11.20;99.90
10536;DHT22;5316;49.538;8.352;2023-04-25T17:44:48;11.20;99.90
10536;DHT22;5316;49.538;8.352;2023-04-25T17:47:15;11.20;99.90
10536;DHT22;5316;49.538;8.352;2023-04-25T17:49:42;11.10;99.90
10536;DHT22;5316;49.538;8.352;2023-04-25T17:52:09;11.00;99.90
10536;DHT22;5316;49.538;8.352;2023-04-25T17:54:36;11.00;99.90
10536;DHT22;5316;49.538;8.352;2023-04-25T17:57:03;11.00;99.90
10536;DHT22;5316;49.538;8.352;2023-04-25T17:59:31;11.00;99.90
10536;DHT22;5316;49.538;8.352;2023-04-25T18:01:59;11.00;99.90
10536;DHT22;5316;49.538;8.352;2023-04-25T18:04:26;11.10;99.80
10536;DHT22;5316;49.538;8.352;2023-04-25T18:06:53;11.00;24.50
10536;DHT22;5316;49.538;8.352;2023-04-25T18:09:21;11.00;8.30
10536;DHT22;5316;49.538;8.352;2023-04-25T18:11:50;11.00;1.00
10536;DHT22;5316;49.538;8.352;2023-04-25T18:14:19;10.90;1.00
10536;DHT22;5316;49.538;8.352;2023-04-25T18:16:48;10.90;10.00